»·PEaware :: N602CN KPDX-KRDD

N602CN :: KPDX-KRDD

FLIGHT INFORMATION

Flight Status: Arrived
Operator: Privately registered:
United States
More flights under this callsign
Pilot: Anonymous 10623 (10623)
Aircraft: BEECH AIRCRAFT SUPER KING AIR COMMUTER
(BE20)
More flights by this aircraft type
Origin: KPDX Portland Intl
United States
Destination: KRDD Redding Mun
United States
More flights between these airports :: More routes between these airports
Route: +PTLD1 EUG OED RDD
File this flight plan on PilotEdge
Remarks:
Altitude:
(Current/Filed)
25,000ft
Speed:
(Current/Filed)
280kts
Departed: 28-Jul-20 02:00 PM
Arrived: 28-Jul-20 04:05 PM
Distance/Time
Traveled:
305nm/2:05
Distance/Time
To Go:
Arrived

Flight Plot

Page will automatically refresh every two minutes.


Map Options




Map Legend


Flown Route
Filed Route
Departure Airport
Arrival Airport
Navaid (VOR, NDB)
Fix

Horizontal Profiles

Position Reports

Time Latitude Longitude Heading Altitude Ground
Speed
28-Jul-20 13:26 45.585443 -122.578612 298 34ft 0kts
28-Jul-20 13:27 45.585443 -122.578612 298 34ft 0kts
28-Jul-20 13:28 45.585443 -122.578612 298 34ft 0kts
28-Jul-20 13:29 45.585443 -122.578612 298 34ft 0kts
28-Jul-20 13:30 45.585443 -122.578612 298 34ft 0kts
28-Jul-20 13:31 45.585443 -122.578612 298 34ft 0kts
28-Jul-20 13:32 45.585443 -122.578612 298 34ft 0kts
28-Jul-20 13:33 45.585443 -122.578612 298 34ft 0kts
28-Jul-20 13:34 45.585443 -122.578612 298 34ft 0kts
28-Jul-20 13:35 45.585443 -122.578612 298 34ft 0kts
28-Jul-20 13:36 45.585443 -122.578612 298 34ft 0kts
28-Jul-20 13:37 45.585443 -122.578612 298 34ft 0kts
28-Jul-20 13:37 45.585443 -122.578612 298 34ft 0kts
28-Jul-20 13:39 45.585443 -122.578612 298 34ft 0kts
28-Jul-20 13:40 45.585443 -122.578612 298 34ft 0kts
28-Jul-20 13:40 45.585443 -122.578612 298 34ft 0kts
28-Jul-20 13:42 45.585443 -122.578612 298 34ft 0kts
28-Jul-20 13:43 45.585443 -122.578612 298 34ft 0kts
28-Jul-20 13:43 45.585443 -122.578612 298 34ft 0kts
28-Jul-20 13:45 45.585443 -122.578612 298 34ft 0kts
28-Jul-20 13:45 45.585444 -122.578612 298 34ft 0kts
28-Jul-20 13:46 45.585445 -122.578616 298 34ft 0kts
28-Jul-20 13:47 45.585448 -122.578624 298 34ft 0kts
28-Jul-20 13:48 45.585450 -122.578630 298 34ft 0kts
28-Jul-20 13:49 45.585495 -122.578739 308 34ft 4kts
28-Jul-20 13:50 45.586180 -122.578673 23 34ft 0kts
28-Jul-20 13:51 45.586181 -122.578672 23 34ft 0kts
28-Jul-20 13:52 45.586662 -122.578019 100 34ft 6kts
28-Jul-20 13:53 45.584855 -122.573393 118 34ft 24kts
28-Jul-20 13:54 45.582819 -122.568144 120 34ft 2kts
28-Jul-20 13:55 45.582739 -122.567310 47 34ft 0kts
28-Jul-20 13:56 45.582741 -122.567308 47 34ft 0kts
28-Jul-20 13:57 45.582743 -122.567305 47 34ft 0kts
28-Jul-20 13:58 45.583339 -122.566840 12 34ft 10kts
28-Jul-20 13:59 45.589155 -122.581130 297 113ft 127kts
28-Jul-20 14:00 45.605733 -122.629404 293 1302ft 151kts
28-Jul-20 14:01 45.624520 -122.683153 296 2434ft 140kts
28-Jul-20 14:02 45.637317 -122.719733 296 3582ft 139kts
28-Jul-20 14:03 45.648260 -122.750754 296 4526ft 139kts
28-Jul-20 14:04 45.659983 -122.783747 296 5590ft 139kts
28-Jul-20 14:05 45.678430 -122.834956 297 5965ft 120kts
28-Jul-20 14:06 45.703200 -122.863291 15 5687ft 151kts
28-Jul-20 14:07 45.709210 -122.810100 108 4618ft 149kts
28-Jul-20 14:08 45.692767 -122.757817 117 3733ft 143kts
28-Jul-20 14:21 45.584751 -122.576352 210 34ft 0kts
28-Jul-20 14:22 45.584751 -122.576352 210 34ft 0kts
28-Jul-20 14:23 45.584751 -122.576352 210 34ft 0kts
28-Jul-20 14:24 45.584751 -122.576352 210 34ft 0kts
28-Jul-20 14:25 45.584751 -122.576352 210 34ft 0kts
28-Jul-20 14:26 45.584751 -122.576352 210 34ft 0kts
28-Jul-20 14:27 45.584751 -122.576352 210 34ft 0kts
28-Jul-20 14:28 45.584751 -122.576352 210 34ft 0kts
28-Jul-20 14:29 45.584751 -122.576352 210 34ft 0kts
28-Jul-20 14:30 45.584751 -122.576352 210 34ft 0kts
28-Jul-20 14:31 45.584751 -122.576352 210 34ft 0kts
28-Jul-20 14:32 45.584749 -122.576353 210 34ft 0kts
28-Jul-20 14:33 45.584747 -122.576356 209 34ft 0kts
28-Jul-20 14:34 45.584745 -122.576357 209 34ft 0kts
28-Jul-20 14:35 45.585412 -122.577096 19 34ft 3kts
28-Jul-20 14:36 45.585953 -122.576481 77 34ft 9kts
28-Jul-20 14:37 45.583635 -122.570296 120 34ft 25kts
28-Jul-20 14:38 45.582807 -122.567673 69 34ft 0kts
28-Jul-20 14:39 45.582808 -122.567671 69 34ft 0kts
28-Jul-20 14:40 45.582808 -122.567669 69 34ft 0kts
28-Jul-20 14:41 45.583107 -122.567122 30 34ft 8kts
28-Jul-20 14:42 45.584605 -122.569340 299 34ft 61kts
28-Jul-20 14:43 45.599426 -122.612896 289 1539ft 144kts
28-Jul-20 14:44 45.604753 -122.681872 274 3296ft 198kts
28-Jul-20 14:45 45.609192 -122.762650 275 5093ft 203kts
28-Jul-20 14:46 45.600415 -122.839533 217 7013ft 212kts
28-Jul-20 14:47 45.540948 -122.854020 185 8752ft 222kts
28-Jul-20 14:48 45.480017 -122.868986 194 10507ft 220kts
28-Jul-20 14:49 45.419996 -122.886041 194 12311ft 219kts
28-Jul-20 14:50 45.360727 -122.902272 194 14128ft 215kts
28-Jul-20 14:51 45.300979 -122.917840 193 15764ft 222kts
28-Jul-20 14:52 45.239698 -122.933843 193 17337ft 226kts
28-Jul-20 14:53 45.176104 -122.950547 193 18657ft 237kts
28-Jul-20 14:54 45.110115 -122.967817 193 20137ft 241kts
28-Jul-20 14:55 45.044193 -122.984946 193 21687ft 241kts
28-Jul-20 14:56 44.977443 -123.002282 192 23057ft 246kts
28-Jul-20 14:57 44.909071 -123.020071 192 24303ft 253kts
28-Jul-20 14:58 44.837681 -123.038577 192 24996ft 274kts
28-Jul-20 14:59 44.759323 -123.058970 192 24984ft 293kts
28-Jul-20 15:00 44.679066 -123.079721 192 24985ft 292kts
28-Jul-20 15:01 44.598764 -123.100347 192 24989ft 292kts
28-Jul-20 15:02 44.519059 -123.120748 192 24990ft 292kts
28-Jul-20 15:03 44.438951 -123.141190 192 24990ft 292kts
28-Jul-20 15:04 44.358266 -123.161745 192 24990ft 294kts
28-Jul-20 15:05 44.278013 -123.182771 192 24991ft 292kts
28-Jul-20 15:06 44.198177 -123.203287 192 24991ft 292kts
28-Jul-20 15:07 44.117891 -123.223335 188 24989ft 292kts
28-Jul-20 15:08 44.036642 -123.211370 172 24990ft 295kts
28-Jul-20 15:09 43.955772 -123.192515 173 24988ft 295kts
28-Jul-20 15:10 43.874575 -123.175617 173 24984ft 295kts
28-Jul-20 15:11 43.793239 -123.159614 174 24979ft 295kts
28-Jul-20 15:12 43.711904 -123.143920 174 24973ft 295kts
28-Jul-20 15:13 43.630541 -123.128314 174 24964ft 295kts
28-Jul-20 15:14 43.549055 -123.112761 174 24961ft 295kts
28-Jul-20 15:15 43.467388 -123.097216 174 24956ft 295kts
28-Jul-20 15:16 43.385849 -123.081699 174 24954ft 295kts
28-Jul-20 15:18 43.304435 -123.066354 174 24952ft 296kts
28-Jul-20 15:19 43.222755 -123.050929 174 24953ft 296kts
28-Jul-20 15:20 43.141090 -123.035632 174 24971ft 296kts
28-Jul-20 15:21 43.059620 -123.020303 174 24986ft 296kts
28-Jul-20 15:22 42.978142 -123.005008 174 25001ft 296kts
28-Jul-20 15:23 42.896376 -122.989773 174 25015ft 296kts
28-Jul-20 15:24 42.814768 -122.974493 174 25025ft 296kts
28-Jul-20 15:25 42.733326 -122.959357 174 25025ft 296kts
28-Jul-20 15:26 42.651288 -122.944457 174 25012ft 296kts
28-Jul-20 15:27 42.569553 -122.929516 174 24987ft 297kts
28-Jul-20 15:28 42.487517 -122.914373 174 24949ft 297kts
28-Jul-20 15:29 42.406443 -122.890617 168 24924ft 298kts
28-Jul-20 15:30 42.325802 -122.863658 168 24922ft 298kts
28-Jul-20 15:31 42.245092 -122.837244 168 24926ft 298kts
28-Jul-20 15:32 42.164855 -122.811321 168 24744ft 290kts
28-Jul-20 15:32 42.098982 -122.790182 168 23701ft 296kts
28-Jul-20 15:34 42.005653 -122.760367 168 22638ft 293kts
28-Jul-20 15:35 41.927900 -122.735452 168 22190ft 280kts
28-Jul-20 15:35 41.865028 -122.715286 169 21561ft 277kts
28-Jul-20 15:37 41.777562 -122.687371 169 20582ft 277kts
28-Jul-20 15:37 41.715049 -122.667632 168 19834ft 277kts
28-Jul-20 15:38 41.636866 -122.642957 168 18853ft 295kts
28-Jul-20 15:40 41.543530 -122.613302 168 17694ft 296kts
28-Jul-20 15:40 41.476457 -122.592491 168 16858ft 295kts
28-Jul-20 15:41 41.396666 -122.567582 168 15859ft 294kts
28-Jul-20 15:42 41.317585 -122.542290 167 14865ft 292kts
28-Jul-20 15:43 41.238699 -122.518029 167 13866ft 290kts
28-Jul-20 15:44 41.160775 -122.493531 166 13197ft 281kts
28-Jul-20 15:45 41.086020 -122.470169 167 13175ft 271kts
28-Jul-20 15:46 41.013353 -122.447767 167 13156ft 264kts
28-Jul-20 15:47 40.939799 -122.425073 166 12321ft 279kts
28-Jul-20 15:48 40.865870 -122.402225 166 10842ft 267kts
28-Jul-20 15:49 40.794325 -122.379832 167 9363ft 267kts
28-Jul-20 15:50 40.724918 -122.358873 168 7759ft 259kts
28-Jul-20 15:51 40.658077 -122.338781 167 7022ft 225kts
28-Jul-20 15:52 40.595561 -122.319547 167 7008ft 235kts
28-Jul-20 15:53 40.531431 -122.299870 167 6999ft 238kts
28-Jul-20 15:54 40.492348 -122.242912 79 6723ft 236kts
28-Jul-20 15:55 40.537692 -122.192519 0 6042ft 231kts
28-Jul-20 15:56 40.601336 -122.198619 354 4878ft 227kts
28-Jul-20 15:57 40.663641 -122.209055 345 3582ft 219kts
28-Jul-20 15:58 40.684202 -122.259404 248 3472ft 171kts
28-Jul-20 15:59 40.653072 -122.295723 174 3364ft 141kts
28-Jul-20 16:00 40.613382 -122.292437 181 2617ft 146kts
28-Jul-20 16:01 40.577125 -122.294454 178 1645ft 107kts
28-Jul-20 16:02 40.548382 -122.294650 180 964ft 97kts
28-Jul-20 16:03 40.521381 -122.294868 178 553ft 91kts
28-Jul-20 16:04 40.506144 -122.294894 179 506ft 22kts
28-Jul-20 16:05 40.501481 -122.295185 237 506ft 7kts
28-Jul-20 16:06 40.502264 -122.296415 318 506ft 17kts
28-Jul-20 16:07 40.506533 -122.298547 352 506ft 14kts
28-Jul-20 16:08 40.508247 -122.298993 343 506ft 3kts
28-Jul-20 16:09 40.508490 -122.298999 2 506ft 0kts
28-Jul-20 16:10 40.508492 -122.298999 2 506ft 0kts
28-Jul-20 16:11 40.508492 -122.298999 2 506ft 0kts

Navigation Log

Ident Type
Flight plan parsing failed, navigation log unavailable